| time (UTC) | temp F | wind direction | speed MPH | gust MPH | rain 1hr in | rain 24hr in | rain mn in | humidity % | barometer mb |
| 20260507194302 | 51 | 188 | 2.0 | 6.0 | 0.00 | 0.00 | 0.00 | 36 | 1011.7 |
| 20260507193758 | 52 | 264 | 4.0 | 11.0 | 0.00 | 0.00 | 0.00 | 36 | 1011.7 |
| 20260507193255 | 53 | 4 | 7.0 | 11.0 | 0.00 | 0.00 | 0.00 | 35 | 1011.9 |
| 20260507192751 | 53 | 346 | 8.0 | 14.0 | 0.00 | 0.00 | 0.00 | 36 | 1011.7 |
| 20260507192249 | 53 | 286 | 7.0 | 13.0 | 0.00 | 0.00 | 0.00 | 35 | 1011.7 |
| 20260507191744 | 53 | 264 | 10.0 | 16.0 | 0.00 | 0.00 | 0.00 | 35 | 1011.7 |
| 20260507191241 | 53 | 263 | 10.0 | 11.0 | 0.00 | 0.00 | 0.00 | 35 | 1011.8 |
| 20260507190738 | 52 | 341 | 9.0 | 13.0 | 0.00 | 0.00 | 0.00 | 36 | 1011.8 |
| 20260507190237 | 53 | 343 | 3.0 | 7.0 | 0.00 | 0.00 | 0.00 | 34 | 1012.0 |
| 20260507185735 | 52 | 294 | 0.0 | 7.0 | 0.00 | 0.00 | 0.00 | 36 | 1012.0 |
| 20260507185231 | 51 | 307 | 11.0 | 11.0 | 0.00 | 0.00 | 0.00 | 37 | 1012.0 |
| 20260507184729 | 51 | 245 | 2.0 | 9.0 | 0.00 | 0.00 | 0.00 | 37 | 1012.0 |
| 20260507184227 | 51 | 329 | 9.0 | 15.0 | 0.00 | 0.00 | 0.00 | 39 | 1011.8 |
| 20260507183723 | 50 | 306 | 9.0 | 16.0 | 0.00 | 0.00 | 0.00 | 39 | 1012.1 |
| 20260507183220 | 52 | 238 | 4.0 | 16.0 | 0.00 | 0.00 | 0.00 | 38 | 1011.9 |
| 20260507182718 | 51 | 185 | 5.0 | 12.0 | 0.00 | 0.00 | 0.00 | 38 | 1012.2 |
| 20260507182212 | 51 | 174 | 0.0 | 12.0 | 0.00 | 0.00 | 0.00 | 38 | 1012.2 |
| 20260507181710 | 51 | 272 | 12.0 | 19.0 | 0.00 | 0.00 | 0.00 | 36 | 1012.1 |
| 20260507181206 | 52 | 263 | 2.0 | 7.0 | 0.00 | 0.00 | 0.00 | 37 | 1012.1 |
| 20260507180702 | 51 | 110 | 0.0 | 4.0 | 0.00 | 0.00 | 0.00 | 38 | 1012.4 |
| 20260507180200 | 51 | 8 | 3.0 | 8.0 | 0.00 | 0.00 | 0.00 | 40 | 1012.3 |
| 20260507175655 | 51 | 328 | 11.0 | 17.0 | 0.00 | 0.00 | 0.00 | 39 | 1012.3 |
| 20260507175153 | 51 | 258 | 3.0 | 9.0 | 0.00 | 0.00 | 0.00 | 41 | 1012.2 |
| 20260507174650 | 49 | 34 | 5.0 | 11.0 | 0.00 | 0.00 | 0.00 | 40 | 1012.3 |
| 20260507174148 | 51 | 317 | 1.0 | 4.0 | 0.00 | 0.00 | 0.00 | 38 | 1012.6 |
| 20260507173645 | 50 | 315 | 3.0 | 8.0 | 0.00 | 0.00 | 0.00 | 39 | 1012.5 |
| 20260507173141 | 49 | 356 | 5.0 | 9.0 | 0.00 | 0.00 | 0.00 | 40 | 1012.6 |
| 20260507172638 | 49 | 349 | 11.0 | 15.0 | 0.00 | 0.00 | 0.00 | 39 | 1012.7 |
| 20260507172136 | 50 | 317 | 5.0 | 9.0 | 0.00 | 0.00 | 0.00 | 39 | 1012.7 |
| 20260507171635 | 50 | 276 | 7.0 | 7.0 | 0.00 | 0.00 | 0.00 | 40 | 1012.6 |
| 20260507171133 | 49 | 320 | 11.0 | 12.0 | 0.00 | 0.00 | 0.00 | 39 | 1012.8 |
| 20260507170630 | 49 | 54 | 6.0 | 9.0 | 0.00 | 0.00 | 0.00 | 40 | 1012.8 |
| 20260507170127 | 51 | 206 | 1.0 | 5.0 | 0.00 | 0.00 | 0.00 | 42 | 1012.9 |
| 20260507165622 | 48 | 350 | 3.0 | 8.0 | 0.00 | 0.00 | 0.00 | 43 | 1012.8 |
| 20260507165119 | 47 | 321 | 2.0 | 6.0 | 0.00 | 0.00 | 0.00 | 44 | 1013.0 |
| 20260507164615 | 47 | 344 | 7.0 | 7.0 | 0.00 | 0.00 | 0.00 | 45 | 1013.3 |
| 20260507164112 | 47 | 317 | 4.0 | 9.0 | 0.00 | 0.00 | 0.00 | 45 | 1013.1 |
| 20260507163609 | 47 | 330 | 10.0 | 16.0 | 0.00 | 0.00 | 0.00 | 46 | 1013.2 |
| 20260507163107 | 47 | 319 | 9.0 | 20.0 | 0.00 | 0.00 | 0.00 | 45 | 1013.0 |
| 20260507162602 | 48 | 50 | 3.0 | 7.0 | 0.00 | 0.00 | 0.00 | 42 | 1013.1 |
| 20260507162059 | 48 | 311 | 8.0 | 10.0 | 0.00 | 0.00 | 0.00 | 43 | 1013.1 |
| 20260507161555 | 48 | 335 | 5.0 | 13.0 | 0.00 | 0.00 | 0.00 | 43 | 1013.3 |
| 20260507161052 | 49 | 210 | 2.0 | 8.0 | 0.00 | 0.00 | 0.00 | 41 | 1013.0 |
| 20260507160548 | 48 | 327 | 4.0 | 11.0 | 0.00 | 0.00 | 0.00 | 42 | 1013.3 |
| 20260507160044 | 47 | 267 | 5.0 | 12.0 | 0.00 | 0.00 | 0.00 | 43 | 1013.3 |
| 20260507155540 | 46 | 300 | 5.0 | 11.0 | 0.00 | 0.00 | 0.00 | 44 | 1013.3 |
| 20260507155037 | 47 | 324 | 7.0 | 10.0 | 0.00 | 0.00 | 0.00 | 44 | 1013.2 |
| 20260507154534 | 48 | 337 | 5.0 | 15.0 | 0.00 | 0.00 | 0.00 | 46 | 1013.4 |
| 20260507154031 | 48 | 8 | 3.0 | 5.0 | 0.00 | 0.00 | 0.00 | 44 | 1013.5 |
| 20260507153528 | 47 | 286 | 8.0 | 13.0 | 0.00 | 0.00 | 0.00 | 48 | 1013.5 |
| 20260507153024 | 47 | 298 | 2.0 | 10.0 | 0.00 | 0.00 | 0.00 | 47 | 1013.5 |
| 20260507152520 | 46 | 220 | 4.0 | 9.0 | 0.00 | 0.00 | 0.00 | 50 | 1013.5 |
| 20260507152017 | 46 | 266 | 9.0 | 11.0 | 0.00 | 0.00 | 0.00 | 48 | 1013.6 |
| 20260507151513 | 46 | 299 | 5.0 | 10.0 | 0.00 | 0.00 | 0.00 | 48 | 1013.6 |
| 20260507151010 | 46 | 60 | 1.0 | 8.0 | 0.00 | 0.00 | 0.00 | 50 | 1013.6 |
| 20260507150507 | 46 | 269 | 3.0 | 9.0 | 0.00 | 0.00 | 0.00 | 51 | 1013.6 |
| 20260507150004 | 46 | 275 | 7.0 | 11.0 | 0.00 | 0.00 | 0.00 | 51 | 1013.7 |
| 20260507145458 | 46 | 1 | 8.0 | 14.0 | 0.00 | 0.00 | 0.00 | 51 | 1013.8 |
| 20260507144956 | 45 | 3 | 5.0 | 10.0 | 0.00 | 0.00 | 0.00 | 52 | 1013.8 |
| 20260507144453 | 45 | 342 | 5.0 | 12.0 | 0.00 | 0.00 | 0.00 | 53 | 1014.1 |
| 20260507143949 | 45 | 272 | 5.0 | 11.0 | 0.00 | 0.00 | 0.00 | 53 | 1013.8 |
| 20260507143448 | 45 | 256 | 7.0 | 14.0 | 0.00 | 0.00 | 0.00 | 54 | 1014.1 |
| 20260507142944 | 44 | 312 | 5.0 | 11.0 | 0.00 | 0.00 | 0.00 | 56 | 1014.1 |
| 20260507142439 | 44 | 265 | 8.0 | 13.0 | 0.00 | 0.00 | 0.00 | 55 | 1014.0 |
| 20260507141937 | 44 | 269 | 4.0 | 9.0 | 0.00 | 0.00 | 0.00 | 57 | 1014.2 |
| 20260507141433 | 45 | 277 | 5.0 | 10.0 | 0.00 | 0.00 | 0.00 | 57 | 1014.2 |
| 20260507140930 | 44 | 305 | 6.0 | 9.0 | 0.00 | 0.00 | 0.00 | 58 | 1014.2 |
| 20260507140426 | 44 | 258 | 4.0 | 7.0 | 0.00 | 0.00 | 0.00 | 58 | 1014.2 |
| 20260507135924 | 44 | 236 | 4.0 | 5.0 | 0.00 | 0.00 | 0.00 | 62 | 1014.3 |
| 20260507135421 | 44 | 238 | 2.0 | 5.0 | 0.00 | 0.00 | 0.00 | 63 | 1014.6 |
| 20260507134918 | 44 | 155 | 2.0 | 3.0 | 0.00 | 0.00 | 0.00 | 65 | 1014.4 |
| 20260507134414 | 44 | 254 | 0.0 | 3.0 | 0.00 | 0.00 | 0.00 | 66 | 1014.4 |
| 20260507133910 | 43 | 241 | 2.0 | 4.0 | 0.00 | 0.00 | 0.00 | 67 | 1014.2 |
| 20260507133406 | 41 | 326 | 1.0 | 5.0 | 0.00 | 0.00 | 0.00 | 69 | 1014.4 |
| 20260507132905 | 42 | 200 | 1.0 | 2.0 | 0.00 | 0.00 | 0.00 | 69 | 1014.5 |
| 20260507132401 | 40 | 307 | 6.0 | 7.0 | 0.00 | 0.00 | 0.00 | 70 | 1014.7 |
| 20260507131858 | 40 | 241 | 3.0 | 10.0 | 0.00 | 0.00 | 0.00 | 71 | 1014.5 |
| 20260507131355 | 39 | 259 | 4.0 | 12.0 | 0.00 | 0.00 | 0.00 | 71 | 1014.4 |
| 20260507130852 | 40 | 248 | 6.0 | 8.0 | 0.00 | 0.00 | 0.00 | 71 | 1014.4 |
| 20260507130349 | 40 | 158 | 3.0 | 6.0 | 0.00 | 0.00 | 0.00 | 71 | 1014.3 |
| 20260507125848 | 39 | 220 | 3.0 | 6.0 | 0.00 | 0.00 | 0.00 | 72 | 1014.3 |
| 20260507125345 | 39 | 250 | 8.0 | 8.0 | 0.00 | 0.00 | 0.00 | 74 | 1014.5 |
| 20260507124842 | 38 | 259 | 3.0 | 6.0 | 0.00 | 0.00 | 0.00 | 75 | 1014.4 |
| 20260507124338 | 38 | 202 | 3.0 | 5.0 | 0.00 | 0.00 | 0.00 | 77 | 1014.5 |
| 20260507123837 | 37 | 252 | 1.0 | 5.0 | 0.00 | 0.00 | 0.00 | 77 | 1014.4 |
| 20260507123334 | 37 | 246 | 4.0 | 7.0 | 0.00 | 0.00 | 0.00 | 77 | 1014.4 |
| 20260507122830 | 36 | 230 | 0.0 | 6.0 | 0.00 | 0.00 | 0.00 | 77 | 1014.5 |
| 20260507122325 | 36 | 214 | 2.0 | 5.0 | 0.00 | 0.00 | 0.00 | 77 | 1014.4 |
| 20260507121823 | 36 | 260 | 4.0 | 5.0 | 0.00 | 0.00 | 0.00 | 77 | 1014.6 |
| 20260507121317 | 35 | 253 | 3.0 | 5.0 | 0.00 | 0.00 | 0.00 | 77 | 1014.5 |
| 20260507120814 | 36 | 250 | 4.0 | 4.0 | 0.00 | 0.00 | 0.00 | 76 | 1014.4 |
| 20260507120310 | 36 | 218 | 2.0 | 5.0 | 0.00 | 0.00 | 0.00 | 76 | 1014.4 |
| 20260507115807 | 36 | 229 | 0.0 | 3.0 | 0.00 | 0.00 | 0.00 | 77 | 1014.4 |
| 20260507115306 | 35 | 208 | 2.0 | 2.0 | 0.00 | 0.00 | 0.00 | 78 | 1014.6 |
| 20260507114759 | 35 | 200 | 0.0 | 3.0 | 0.00 | 0.00 | 0.00 | 79 | 1014.4 |
| 20260507114256 | 34 | 237 | 2.0 | 3.0 | 0.00 | 0.00 | 0.00 | 78 | 1014.3 |
| 20260507113754 | 35 | 200 | 0.0 | 2.0 | 0.00 | 0.00 | 0.00 | 78 | 1014.2 |
| 20260507113250 | 35 | 245 | 0.0 | 2.0 | 0.00 | 0.00 | 0.00 | 77 | 1014.1 |
| 20260507112748 | 35 | 177 | 0.0 | 0.0 | 0.00 | 0.00 | 0.00 | 80 | 1014.1 |
| 20260507112244 | 34 | 171 | 0.0 | 0.0 | 0.00 | 0.00 | 0.00 | 82 | 1014.1 |
| 20260507111743 | 33 | 165 | 0.0 | 2.0 | 0.00 | 0.00 | 0.00 | 83 | 1014.2 |
| 20260507111239 | 32 | 160 | 0.0 | 1.0 | 0.00 | 0.00 | 0.00 | 84 | 1014.1 |
| 20260507110735 | 32 | 260 | 0.0 | 0.0 | 0.00 | 0.00 | 0.00 | 84 | 1014.1 |
| 20260507110231 | 32 | 172 | 0.0 | 3.0 | 0.00 | 0.00 | 0.00 | 84 | 1014.1 |
| 20260507105728 | 32 | 246 | 3.0 | 3.0 | 0.00 | 0.00 | 0.00 | 84 | 1014.1 |
| 20260507105224 | 32 | 232 | 2.0 | 4.0 | 0.00 | 0.00 | 0.00 | 83 | 1014.1 |
| 20260507104722 | 32 | 255 | 3.0 | 4.0 | 0.00 | 0.00 | 0.00 | 83 | 1014.0 |
| 20260507104218 | 33 | 241 | 2.0 | 3.0 | 0.00 | 0.00 | 0.00 | 82 | 1014.1 |
| 20260507103714 | 33 | 269 | 0.0 | 3.0 | 0.00 | 0.00 | 0.00 | 82 | 1014.1 |
| 20260507103211 | 33 | 230 | 2.0 | 5.0 | 0.00 | 0.00 | 0.00 | 81 | 1014.0 |
| 20260507102707 | 33 | 250 | 4.0 | 5.0 | 0.00 | 0.00 | 0.00 | 81 | 1014.1 |
| 20260507102204 | 33 | 252 | 5.0 | 5.0 | 0.00 | 0.00 | 0.00 | 80 | 1014.1 |
| 20260507101700 | 33 | 250 | 2.0 | 5.0 | 0.00 | 0.00 | 0.00 | 80 | 1014.0 |
| 20260507101155 | 33 | 238 | 2.0 | 6.0 | 0.00 | 0.00 | 0.00 | 80 | 1014.1 |
| 20260507100653 | 33 | 256 | 4.0 | 5.0 | 0.00 | 0.00 | 0.00 | 80 | 1014.1 |
| 20260507100151 | 33 | 261 | 5.0 | 7.0 | 0.00 | 0.00 | 0.00 | 80 | 1014.1 |
| 20260507095649 | 33 | 254 | 6.0 | 7.0 | 0.00 | 0.00 | 0.00 | 80 | 1014.1 |
| 20260507095145 | 33 | 225 | 3.0 | 6.0 | 0.00 | 0.00 | 0.00 | 80 | 1014.2 |
| 20260507094642 | 33 | 226 | 2.0 | 6.0 | 0.00 | 0.00 | 0.00 | 81 | 1014.1 |
| 20260507094138 | 33 | 226 | 3.0 | 7.0 | 0.00 | 0.00 | 0.00 | 81 | 1014.3 |
| 20260507093636 | 33 | 245 | 5.0 | 7.0 | 0.00 | 0.00 | 0.00 | 81 | 1014.3 |
| 20260507093135 | 33 | 170 | 2.0 | 5.0 | 0.00 | 0.00 | 0.00 | 81 | 1014.2 |
| 20260507092631 | 33 | 236 | 4.0 | 5.0 | 0.00 | 0.00 | 0.00 | 80 | 1014.0 |
| 20260507092127 | 33 | 245 | 3.0 | 5.0 | 0.00 | 0.00 | 0.00 | 80 | 1014.3 |
| 20260507091624 | 33 | 226 | 3.0 | 5.0 | 0.00 | 0.00 | 0.00 | 79 | 1014.1 |
| 20260507091120 | 33 | 248 | 2.0 | 7.0 | 0.00 | 0.00 | 0.00 | 78 | 1014.3 |
| 20260507090616 | 33 | 257 | 3.0 | 5.0 | 0.00 | 0.00 | 0.00 | 78 | 1014.2 |
| 20260507090113 | 33 | 228 | 2.0 | 5.0 | 0.00 | 0.00 | 0.00 | 78 | 1014.2 |
| 20260507085610 | 33 | 207 | 0.0 | 1.0 | 0.00 | 0.00 | 0.00 | 78 | 1014.2 |
| 20260507085107 | 33 | 207 | 1.0 | 3.0 | 0.00 | 0.00 | 0.00 | 78 | 1014.2 |
| 20260507084604 | 33 | 221 | 0.0 | 4.0 | 0.00 | 0.00 | 0.00 | 78 | 1014.4 |
| 20260507084101 | 33 | 259 | 2.0 | 2.0 | 0.00 | 0.00 | 0.00 | 77 | 1014.2 |
| 20260507083557 | 33 | 215 | 0.0 | 1.0 | 0.00 | 0.00 | 0.00 | 77 | 1014.4 |
| 20260507083054 | 33 | 206 | 0.0 | 2.0 | 0.00 | 0.00 | 0.00 | 77 | 1014.1 |
| 20260507082550 | 34 | 214 | 0.0 | 3.0 | 0.00 | 0.00 | 0.00 | 77 | 1014.2 |
| 20260507082047 | 34 | 209 | 0.0 | 4.0 | 0.00 | 0.00 | 0.00 | 77 | 1014.1 |
| 20260507081543 | 34 | 190 | 2.0 | 4.0 | 0.00 | 0.00 | 0.00 | 77 | 1014.1 |
| 20260507081040 | 34 | 233 | 2.0 | 4.0 | 0.00 | 0.00 | 0.00 | 77 | 1014.2 |
| 20260507080535 | 34 | 226 | 2.0 | 4.0 | 0.00 | 0.00 | 0.00 | 77 | 1014.0 |
| 20260507080032 | 34 | 259 | 4.0 | 4.0 | 0.00 | 0.00 | 0.00 | 77 | 1014.2 |
| 20260507075527 | 35 | 259 | 2.0 | 5.0 | 0.00 | 0.00 | 0.00 | 76 | 1014.2 |
| 20260507075024 | 35 | 266 | 1.0 | 3.0 | 0.00 | 0.00 | 0.00 | 76 | 1014.4 |
| 20260507074521 | 35 | 254 | 1.0 | 3.0 | 0.00 | 0.00 | 0.00 | 76 | 1014.3 |
| 20260507074020 | 35 | 250 | 2.0 | 3.0 | 0.00 | 0.00 | 0.00 | 75 | 1014.4 |
| 20260507073515 | 35 | 270 | 0.0 | 2.0 | 0.00 | 0.00 | 0.00 | 76 | 1014.4 |
| 20260507073012 | 35 | 205 | 0.0 | 2.0 | 0.00 | 0.00 | 0.00 | 75 | 1014.4 |
| 20260507072510 | 35 | 210 | 2.0 | 3.0 | 0.00 | 0.00 | 0.00 | 75 | 1014.3 |
| 20260507072006 | 36 | 266 | 0.0 | 4.0 | 0.00 | 0.00 | 0.00 | 75 | 1014.5 |
| 20260507071504 | 36 | 245 | 3.0 | 3.0 | 0.00 | 0.00 | 0.00 | 75 | 1014.3 |
| 20260507071000 | 36 | 221 | 2.0 | 3.0 | 0.00 | 0.00 | 0.00 | 74 | 1014.7 |
| 20260507070458 | 36 | 186 | 0.0 | 1.0 | 0.00 | 0.00 | 0.00 | 74 | 1014.8 |
| 20260507065954 | 36 | 207 | 1.0 | 2.0 | 0.00 | 0.00 | 0.00 | 74 | 1014.7 |
| 20260507065451 | 36 | 200 | 0.0 | 2.0 | 0.00 | 0.00 | 0.00 | 73 | 1014.6 |
| 20260507064948 | 36 | 117 | 0.0 | 0.0 | 0.00 | 0.00 | 0.00 | 73 | 1014.7 |
| 20260507064446 | 36 | 171 | 0.0 | 1.0 | 0.00 | 0.00 | 0.00 | 73 | 1014.7 |
| 20260507063944 | 37 | 144 | 2.0 | 2.0 | 0.00 | 0.00 | 0.00 | 73 | 1014.7 |
| 20260507063440 | 37 | 177 | 0.0 | 2.0 | 0.00 | 0.00 | 0.00 | 72 | 1014.9 |
| 20260507062937 | 37 | 254 | 0.0 | 0.0 | 0.00 | 0.00 | 0.00 | 72 | 1014.8 |
| 20260507062435 | 37 | 186 | 0.0 | 1.0 | 0.00 | 0.00 | 0.00 | 73 | 1015.0 |
| 20260507061932 | 37 | 191 | 2.0 | 2.0 | 0.00 | 0.00 | 0.00 | 73 | 1015.0 |
| 20260507061430 | 37 | 193 | 0.0 | 1.0 | 0.00 | 0.00 | 0.00 | 73 | 1014.8 |
| 20260507060928 | 37 | 140 | 0.0 | 2.0 | 0.00 | 0.00 | 0.00 | 74 | 1014.9 |
| 20260507060425 | 36 | 193 | 0.0 | 2.0 | 0.00 | 0.00 | 0.00 | 74 | 1015.2 |
| 20260507055921 | 36 | 177 | 1.0 | 2.0 | 0.00 | 0.00 | 0.00 | 75 | 1015.0 |
| 20260507055417 | 36 | 176 | 2.0 | 2.0 | 0.00 | 0.00 | 0.00 | 75 | 1015.1 |
| 20260507054914 | 36 | 166 | 2.0 | 2.0 | 0.00 | 0.00 | 0.00 | 75 | 1015.3 |
| 20260507054410 | 36 | 205 | 1.0 | 1.0 | 0.00 | 0.00 | 0.00 | 75 | 1015.1 |
| 20260507053907 | 37 | 207 | 0.0 | 1.0 | 0.00 | 0.00 | 0.00 | 74 | 1015.3 |
| 20260507053405 | 37 | 186 | 1.0 | 2.0 | 0.00 | 0.00 | 0.00 | 74 | 1015.2 |
| 20260507052904 | 37 | 181 | 2.0 | 3.0 | 0.00 | 0.00 | 0.00 | 73 | 1015.2 |
| 20260507052400 | 37 | 178 | 2.0 | 2.0 | 0.00 | 0.00 | 0.00 | 72 | 1015.2 |
| 20260507051857 | 38 | 152 | 2.0 | 3.0 | 0.00 | 0.00 | 0.00 | 72 | 1015.3 |
| 20260507051355 | 38 | 163 | 2.0 | 2.0 | 0.00 | 0.00 | 0.00 | 72 | 1015.3 |
| 20260507050851 | 38 | 194 | 1.0 | 2.0 | 0.00 | 0.00 | 0.00 | 71 | 1015.4 |
| 20260507050348 | 39 | 151 | 0.0 | 1.0 | 0.00 | 0.00 | 0.00 | 71 | 1015.3 |
| 20260507045845 | 39 | 164 | 2.0 | 2.0 | 0.00 | 0.00 | 0.00 | 70 | 1015.5 |
| 20260507045341 | 39 | 237 | 0.0 | 2.0 | 0.00 | 0.00 | 0.00 | 69 | 1015.3 |
| 20260507044839 | 39 | 207 | 0.0 | 2.0 | 0.00 | 0.00 | 0.00 | 67 | 1015.4 |
| 20260507044335 | 40 | 200 | 1.0 | 1.0 | 0.00 | 0.00 | 0.00 | 66 | 1015.6 |
| 20260507043831 | 40 | 126 | 0.0 | 2.0 | 0.00 | 0.00 | 0.00 | 66 | 1015.5 |
| 20260507043328 | 40 | 125 | 2.0 | 3.0 | 0.00 | 0.00 | 0.00 | 66 | 1015.3 |
| 20260507042824 | 40 | 126 | 2.0 | 3.0 | 0.00 | 0.00 | 0.00 | 66 | 1015.5 |
| 20260507042320 | 41 | 140 | 2.0 | 3.0 | 0.00 | 0.00 | 0.00 | 65 | 1015.5 |
| 20260507041817 | 41 | 110 | 0.0 | 2.0 | 0.00 | 0.00 | 0.00 | 64 | 1015.4 |
| 20260507041313 | 41 | 159 | 0.0 | 2.0 | 0.00 | 0.00 | 0.00 | 63 | 1015.4 |
| 20260507040811 | 41 | 165 | 1.0 | 2.0 | 0.00 | 0.00 | 0.00 | 63 | 1015.6 |
| 20260507040307 | 42 | 164 | 2.0 | 2.0 | 0.00 | 0.00 | 0.00 | 62 | 1015.9 |
| 20260507035803 | 42 | 212 | 1.0 | 2.0 | 0.00 | 0.00 | 0.00 | 63 | 1015.6 |
| 20260507035258 | 42 | 164 | 0.0 | 3.0 | 0.00 | 0.00 | 0.00 | 62 | 1015.9 |
| 20260507034756 | 42 | 163 | 2.0 | 2.0 | 0.00 | 0.00 | 0.00 | 61 | 1015.8 |
| 20260507034253 | 42 | 174 | 0.0 | 2.0 | 0.00 | 0.00 | 0.00 | 61 | 1015.8 |
| 20260507033751 | 42 | 212 | 0.0 | 2.0 | 0.00 | 0.00 | 0.00 | 61 | 1015.9 |
| 20260507033248 | 42 | 210 | 0.0 | 2.0 | 0.00 | 0.00 | 0.00 | 60 | 1015.8 |
| 20260507032745 | 42 | 200 | 1.0 | 2.0 | 0.00 | 0.00 | 0.00 | 58 | 1015.9 |
| 20260507032241 | 42 | 200 | 1.0 | 2.0 | 0.00 | 0.00 | 0.00 | 58 | 1015.8 |
| 20260507031738 | 42 | 214 | 1.0 | 2.0 | 0.00 | 0.00 | 0.00 | 58 | 1015.9 |
| 20260507031235 | 42 | 249 | 0.0 | 4.0 | 0.00 | 0.00 | 0.00 | 58 | 1016.1 |
| 20260507030732 | 42 | 241 | 2.0 | 3.0 | 0.00 | 0.00 | 0.00 | 58 | 1016.3 |
| 20260507030229 | 42 | 263 | 1.0 | 3.0 | 0.00 | 0.00 | 0.00 | 58 | 1016.2 |
| 20260507025726 | 43 | 253 | 0.0 | 4.0 | 0.00 | 0.00 | 0.00 | 58 | 1016.4 |
| 20260507025223 | 42 | 277 | 3.0 | 4.0 | 0.00 | 0.00 | 0.00 | 57 | 1016.1 |
| 20260507024721 | 42 | 300 | 3.0 | 5.0 | 0.00 | 0.00 | 0.00 | 57 | 1016.3 |
| 20260507024218 | 43 | 275 | 3.0 | 4.0 | 0.00 | 0.00 | 0.00 | 57 | 1016.2 |
| 20260507023714 | 43 | 272 | 2.0 | 5.0 | 0.00 | 0.00 | 0.00 | 57 | 1016.1 |
| 20260507023211 | 43 | 280 | 4.0 | 4.0 | 0.00 | 0.00 | 0.00 | 57 | 1016.2 |
| 20260507022708 | 42 | 275 | 3.0 | 4.0 | 0.00 | 0.00 | 0.00 | 57 | 1016.2 |
| 20260507022204 | 43 | 305 | 2.0 | 3.0 | 0.00 | 0.00 | 0.00 | 57 | 1016.5 |
| 20260507021701 | 43 | 323 | 2.0 | 3.0 | 0.00 | 0.00 | 0.00 | 57 | 1016.2 |
| 20260507021155 | 43 | 316 | 3.0 | 6.0 | 0.00 | 0.00 | 0.00 | 56 | 1016.2 |
| 20260507020655 | 43 | 294 | 3.0 | 5.0 | 0.00 | 0.00 | 0.00 | 56 | 1016.2 |
| 20260507020150 | 43 | 314 | 1.0 | 3.0 | 0.00 | 0.00 | 0.00 | 56 | 1016.2 |
| 20260507015649 | 43 | 302 | 2.0 | 6.0 | 0.00 | 0.00 | 0.00 | 56 | 1016.1 |
| 20260507015145 | 43 | 309 | 2.0 | 5.0 | 0.00 | 0.00 | 0.00 | 56 | 1015.9 |
| 20260507014642 | 43 | 333 | 3.0 | 6.0 | 0.00 | 0.00 | 0.00 | 55 | 1016.1 |
| 20260507014138 | 43 | 278 | 1.0 | 4.0 | 0.00 | 0.00 | 0.00 | 55 | 1016.0 |
| 20260507013635 | 43 | 9 | 4.0 | 8.0 | 0.00 | 0.00 | 0.00 | 55 | 1016.1 |
| 20260507013132 | 43 | 300 | 2.0 | 5.0 | 0.00 | 0.00 | 0.00 | 54 | 1016.0 |
| 20260507012630 | 43 | 301 | 6.0 | 6.0 | 0.00 | 0.00 | 0.00 | 55 | 1016.0 |
| 20260507012125 | 43 | 304 | 3.0 | 9.0 | 0.00 | 0.00 | 0.00 | 55 | 1016.2 |
| 20260507011623 | 43 | 273 | 9.0 | 9.0 | 0.00 | 0.00 | 0.00 | 55 | 1016.2 |
| 20260507011119 | 43 | 277 | 6.0 | 6.0 | 0.00 | 0.00 | 0.00 | 55 | 1016.3 |
| 20260507010614 | 43 | 328 | 4.0 | 7.0 | 0.00 | 0.00 | 0.00 | 54 | 1016.0 |
| 20260507010110 | 43 | 265 | 5.0 | 12.0 | 0.00 | 0.00 | 0.00 | 54 | 1016.2 |
| 20260507005608 | 43 | 339 | 6.0 | 7.0 | 0.00 | 0.00 | 0.00 | 54 | 1016.0 |
| 20260507005104 | 43 | 273 | 8.0 | 9.0 | 0.00 | 0.00 | 0.00 | 54 | 1016.0 |
| 20260507004601 | 43 | 280 | 9.0 | 14.0 | 0.00 | 0.00 | 0.00 | 54 | 1016.0 |
| 20260507004058 | 43 | 338 | 5.0 | 8.0 | 0.00 | 0.00 | 0.00 | 54 | 1016.1 |
| 20260507003554 | 43 | 275 | 9.0 | 9.0 | 0.00 | 0.00 | 0.00 | 54 | 1015.9 |
| 20260507003049 | 44 | 290 | 8.0 | 9.0 | 0.00 | 0.00 | 0.00 | 53 | 1015.9 |
| 20260507002546 | 44 | 341 | 4.0 | 11.0 | 0.00 | 0.00 | 0.00 | 53 | 1015.9 |
| 20260507002042 | 44 | 293 | 6.0 | 14.0 | 0.00 | 0.00 | 0.00 | 53 | 1015.9 |
| 20260507001539 | 43 | 353 | 8.0 | 12.0 | 0.00 | 0.00 | 0.00 | 53 | 1015.9 |
| 20260507001036 | 44 | 318 | 6.0 | 11.0 | 0.00 | 0.00 | 0.00 | 53 | 1015.8 |
| 20260507000532 | 44 | 274 | 7.0 | 15.0 | 0.00 | 0.00 | 0.00 | 53 | 1016.0 |
| 20260507000028 | 43 | 311 | 11.0 | 14.0 | 0.00 | 0.00 | 0.00 | 53 | 1015.8 |
| 20260506235526 | 43 | 274 | 8.0 | 14.0 | 0.00 | 0.00 | 0.00 | 53 | 1016.0 |
| 20260506235021 | 44 | 314 | 7.0 | 10.0 | 0.00 | 0.00 | 0.00 | 53 | 1015.7 |
| 20260506234519 | 44 | 343 | 4.0 | 12.0 | 0.00 | 0.00 | 0.00 | 53 | 1015.9 |
| 20260506234016 | 44 | 307 | 6.0 | 10.0 | 0.00 | 0.00 | 0.00 | 53 | 1015.9 |
| 20260506233512 | 44 | 306 | 4.0 | 12.0 | 0.00 | 0.00 | 0.00 | 53 | 1016.0 |
| 20260506233009 | 44 | 352 | 12.0 | 14.0 | 0.00 | 0.00 | 0.00 | 53 | 1016.0 |
| 20260506232505 | 43 | 315 | 10.0 | 14.0 | 0.00 | 0.00 | 0.00 | 52 | 1015.9 |
| 20260506232001 | 44 | 315 | 15.0 | 15.0 | 0.00 | 0.00 | 0.00 | 53 | 1016.1 |
| 20260506231459 | 43 | 315 | 9.0 | 16.0 | 0.00 | 0.00 | 0.00 | 53 | 1016.1 |
| 20260506230956 | 43 | 302 | 11.0 | 17.0 | 0.00 | 0.00 | 0.00 | 53 | 1016.1 |
| 20260506230452 | 43 | 303 | 11.0 | 14.0 | 0.00 | 0.00 | 0.00 | 54 | 1016.0 |
| 20260506225949 | 44 | 295 | 11.0 | 17.0 | 0.00 | 0.00 | 0.00 | 53 | 1016.1 |
| 20260506225446 | 43 | 303 | 10.0 | 19.0 | 0.00 | 0.00 | 0.00 | 53 | 1016.1 |
| 20260506224943 | 43 | 270 | 11.0 | 17.0 | 0.00 | 0.00 | 0.00 | 53 | 1016.2 |
| 20260506224440 | 44 | 297 | 4.0 | 11.0 | 0.00 | 0.00 | 0.00 | 54 | 1016.2 |
| 20260506223936 | 44 | 290 | 5.0 | 16.0 | 0.00 | 0.00 | 0.00 | 54 | 1016.2 |
| 20260506223432 | 43 | 288 | 5.0 | 15.0 | 0.00 | 0.00 | 0.00 | 55 | 1016.2 |
| 20260506222930 | 43 | 327 | 8.0 | 11.0 | 0.00 | 0.00 | 0.00 | 55 | 1016.2 |
| 20260506222426 | 43 | 302 | 12.0 | 17.0 | 0.00 | 0.00 | 0.00 | 55 | 1016.4 |
| 20260506221923 | 43 | 257 | 10.0 | 15.0 | 0.00 | 0.00 | 0.00 | 55 | 1016.1 |
| 20260506221420 | 43 | 286 | 10.0 | 18.0 | 0.00 | 0.00 | 0.00 | 55 | 1016.2 |
| 20260506220918 | 44 | 269 | 7.0 | 12.0 | 0.00 | 0.00 | 0.00 | 54 | 1016.4 |
| 20260506220413 | 43 | 277 | 7.0 | 14.0 | 0.00 | 0.00 | 0.00 | 55 | 1016.3 |
| 20260506215910 | 43 | 311 | 6.0 | 14.0 | 0.00 | 0.00 | 0.00 | 54 | 1016.3 |
| 20260506215406 | 43 | 304 | 6.0 | 16.0 | 0.00 | 0.00 | 0.00 | 55 | 1016.3 |
| 20260506214902 | 43 | 275 | 7.0 | 12.0 | 0.00 | 0.00 | 0.00 | 55 | 1016.3 |
| 20260506214359 | 43 | 298 | 6.0 | 19.0 | 0.00 | 0.00 | 0.00 | 55 | 1016.2 |
| 20260506213857 | 43 | 316 | 11.0 | 15.0 | 0.00 | 0.00 | 0.00 | 55 | 1016.0 |
| 20260506213354 | 43 | 309 | 9.0 | 14.0 | 0.00 | 0.00 | 0.00 | 55 | 1016.1 |
| 20260506212851 | 43 | 274 | 10.0 | 20.0 | 0.00 | 0.00 | 0.00 | 55 | 1016.3 |
| 20260506212347 | 43 | 304 | 7.0 | 20.0 | 0.00 | 0.00 | 0.00 | 55 | 1016.1 |
| 20260506211842 | 43 | 267 | 17.0 | 17.0 | 0.00 | 0.00 | 0.00 | 55 | 1016.1 |
| 20260506211338 | 43 | 348 | 8.0 | 21.0 | 0.00 | 0.00 | 0.00 | 56 | 1016.1 |
| 20260506210836 | 44 | 343 | 10.0 | 15.0 | 0.00 | 0.00 | 0.00 | 55 | 1016.3 |
| 20260506210333 | 44 | 337 | 4.0 | 17.0 | 0.00 | 0.00 | 0.00 | 55 | 1016.0 |
| 20260506205830 | 43 | 345 | 8.0 | 15.0 | 0.00 | 0.00 | 0.00 | 55 | 1016.2 |
| 20260506205326 | 43 | 297 | 8.0 | 18.0 | 0.00 | 0.00 | 0.00 | 55 | 1016.2 |
| 20260506204822 | 44 | 286 | 11.0 | 17.0 | 0.00 | 0.00 | 0.00 | 54 | 1016.3 |
| 20260506204320 | 44 | 279 | 7.0 | 16.0 | 0.00 | 0.00 | 0.00 | 54 | 1016.0 |
| 20260506203818 | 44 | 313 | 13.0 | 13.0 | 0.00 | 0.00 | 0.00 | 54 | 1016.2 |
| 20260506203315 | 44 | 285 | 9.0 | 17.0 | 0.00 | 0.00 | 0.00 | 54 | 1016.1 |
| 20260506202811 | 44 | 313 | 8.0 | 15.0 | 0.00 | 0.00 | 0.00 | 53 | 1016.0 |
| 20260506202308 | 44 | 307 | 8.0 | 15.0 | 0.00 | 0.00 | 0.00 | 53 | 1016.1 |
| 20260506201805 | 44 | 325 | 8.0 | 12.0 | 0.00 | 0.00 | 0.00 | 54 | 1016.3 |
| 20260506201302 | 44 | 261 | 12.0 | 15.0 | 0.00 | 0.00 | 0.00 | 54 | 1016.2 |
| 20260506200759 | 44 | 270 | 9.0 | 13.0 | 0.00 | 0.00 | 0.00 | 53 | 1016.0 |
| 20260506200255 | 44 | 275 | 8.0 | 11.0 | 0.00 | 0.00 | 0.00 | 53 | 1016.2 |
| 20260506195751 | 43 | 277 | 9.0 | 14.0 | 0.00 | 0.00 | 0.00 | 53 | 1016.2 |
| 20260506195248 | 44 | 274 | 9.0 | 18.0 | 0.00 | 0.00 | 0.00 | 54 | 1016.2 |
| 20260506194746 | 43 | 279 | 8.0 | 18.0 | 0.00 | 0.00 | 0.00 | 54 | 1016.3 |